createdAt,value
2022-09-02T00:01:24.878Z,90.20
2022-09-02T00:03:52.971Z,90.30
2022-09-02T00:06:19.861Z,90.40
2022-09-02T00:08:47.120Z,90.30
2022-09-02T00:11:18.893Z,90.40
2022-09-02T00:13:46.364Z,90.40
2022-09-02T00:16:14.139Z,90.30
2022-09-02T00:18:44.933Z,90.40
2022-09-02T00:21:14.364Z,90.40
2022-09-02T00:23:42.865Z,90.40
2022-09-02T00:26:09.992Z,90.50
2022-09-02T00:28:37.105Z,90.50
2022-09-02T00:31:04.218Z,90.40
2022-09-02T00:33:31.779Z,90.60
2022-09-02T00:36:01.028Z,90.60
2022-09-02T00:38:29.108Z,90.70
2022-09-02T00:40:55.996Z,90.70
2022-09-02T00:43:43.961Z,90.70
2022-09-02T00:46:12.288Z,90.80
2022-09-02T00:48:43.511Z,90.80
2022-09-02T00:51:11.981Z,90.80
2022-09-02T00:53:41.330Z,90.90
2022-09-02T00:56:13.217Z,91.10
2022-09-02T00:58:43.061Z,91.20
2022-09-02T01:01:11.819Z,91.10
2022-09-02T01:03:41.259Z,90.80
2022-09-02T01:06:10.555Z,91.00
2022-09-02T01:08:39.282Z,90.90
2022-09-02T01:11:06.859Z,90.80
2022-09-02T01:13:40.391Z,90.90
2022-09-02T01:16:17.058Z,90.80
2022-09-02T01:18:49.732Z,90.90
2022-09-02T01:21:17.678Z,90.90
2022-09-02T01:23:45.914Z,91.10
2022-09-02T01:26:13.098Z,91.10
2022-09-02T01:28:40.180Z,91.10
2022-09-02T01:31:07.328Z,91.20
2022-09-02T01:33:34.580Z,91.40
2022-09-02T01:36:04.265Z,91.00
2022-09-02T01:38:32.236Z,90.80
2022-09-02T01:40:59.164Z,90.80
2022-09-02T01:43:28.392Z,90.80
2022-09-02T01:45:57.732Z,90.70
2022-09-02T01:48:25.010Z,90.60
2022-09-02T01:50:58.149Z,90.60
2022-09-02T01:53:25.256Z,90.70
2022-09-02T01:55:52.460Z,90.60
2022-09-02T01:58:20.082Z,90.70
2022-09-02T02:00:47.695Z,90.70
2022-09-02T02:03:15.157Z,90.70
2022-09-02T02:05:42.286Z,90.60
2022-09-02T02:08:09.503Z,90.80
2022-09-02T02:10:37.014Z,91.00
2022-09-02T02:13:04.007Z,90.90
2022-09-02T02:17:56.663Z,91.00
2022-09-02T02:20:23.581Z,90.80
2022-09-02T02:22:50.449Z,90.90
2022-09-02T02:25:18.833Z,91.10
2022-09-02T02:27:45.849Z,91.20
2022-09-02T02:30:15.433Z,91.20
2022-09-02T02:32:43.305Z,91.30
2022-09-02T02:35:11.424Z,91.20
2022-09-02T02:37:38.304Z,91.40
2022-09-02T02:40:07.007Z,91.60
2022-09-02T02:42:35.537Z,91.80
2022-09-02T02:45:03.353Z,92.00
2022-09-02T02:47:30.171Z,92.10
2022-09-02T02:49:57.077Z,92.10
2022-09-02T02:52:24.116Z,92.10
2022-09-02T02:54:51.037Z,92.20
2022-09-02T02:57:17.887Z,92.30
2022-09-02T02:59:44.641Z,92.40
2022-09-02T03:02:11.673Z,92.30
2022-09-02T03:04:39.979Z,92.30
2022-09-02T03:07:07.308Z,92.30
2022-09-02T03:09:34.399Z,92.40
2022-09-02T03:12:01.437Z,92.30
2022-09-02T03:14:28.385Z,92.30
2022-09-02T03:16:55.255Z,92.30
2022-09-02T03:19:22.146Z,92.40
2022-09-02T03:21:49.117Z,92.60
2022-09-02T03:24:15.938Z,92.60
2022-09-02T03:26:43.660Z,92.70
2022-09-02T03:29:10.595Z,92.80
2022-09-02T03:31:37.847Z,92.70
2022-09-02T03:34:05.207Z,92.70
2022-09-02T03:36:38.829Z,92.60
2022-09-02T03:39:09.694Z,92.40
2022-09-02T03:41:37.191Z,92.00
2022-09-02T03:44:05.454Z,92.20
2022-09-02T03:46:32.276Z,92.30
2022-09-02T03:48:59.147Z,92.10
2022-09-02T03:51:27.241Z,92.20
2022-09-02T03:53:54.551Z,92.30
2022-09-02T03:56:22.103Z,91.90
2022-09-02T03:58:51.519Z,90.00
2022-09-02T04:01:28.989Z,86.50
2022-09-02T04:04:02.153Z,83.40
2022-09-02T04:06:32.456Z,81.90
2022-09-02T04:08:59.829Z,81.00
2022-09-02T04:11:26.848Z,79.50
2022-09-02T04:13:54.023Z,77.70
2022-09-02T04:16:28.894Z,76.80
2022-09-02T04:18:58.375Z,76.40
2022-09-02T04:21:26.113Z,75.10
2022-09-02T04:23:53.071Z,74.00
2022-09-02T04:26:21.675Z,73.60
2022-09-02T04:28:50.002Z,73.00
2022-09-02T04:31:18.913Z,72.40
2022-09-02T04:33:46.334Z,71.70
2022-09-02T04:36:15.759Z,71.30
2022-09-02T04:38:43.250Z,70.90
2022-09-02T04:41:16.535Z,70.80
2022-09-02T04:43:43.990Z,70.20
2022-09-02T04:46:13.716Z,69.50
2022-09-02T04:48:44.125Z,69.50
2022-09-02T04:51:14.746Z,69.00
2022-09-02T04:53:42.425Z,68.60
2022-09-02T04:56:11.277Z,68.40
2022-09-02T04:58:38.909Z,67.50
2022-09-02T05:01:17.719Z,67.40
2022-09-02T05:03:45.623Z,67.60
2022-09-02T05:06:19.659Z,67.40
2022-09-02T05:08:48.071Z,67.50
2022-09-02T05:11:18.548Z,68.10
2022-09-02T05:13:51.628Z,68.30
2022-09-02T05:16:21.376Z,68.60
2022-09-02T05:18:49.354Z,68.60
2022-09-02T05:21:16.597Z,68.40
2022-09-02T05:23:43.744Z,68.00
2022-09-02T05:26:13.171Z,67.90
2022-09-02T05:28:41.725Z,67.40
2022-09-02T05:31:12.780Z,67.10
2022-09-02T05:33:42.152Z,67.00
2022-09-02T05:36:12.571Z,67.10
2022-09-02T05:38:43.571Z,67.30
2022-09-02T05:41:14.645Z,66.80
2022-09-02T05:43:44.703Z,66.90
2022-09-02T05:46:17.522Z,67.60
2022-09-02T05:49:04.995Z,67.50
2022-09-02T05:51:33.621Z,67.20
2022-09-02T05:54:01.551Z,67.30
2022-09-02T05:56:28.716Z,67.10
2022-09-02T05:58:57.344Z,66.90
2022-09-02T06:01:24.636Z,66.90
2022-09-02T06:03:52.346Z,67.40
2022-09-02T06:06:22.995Z,66.60
2022-09-02T06:08:51.154Z,66.50
2022-09-02T06:11:18.455Z,66.40
2022-09-02T06:13:45.284Z,66.10
2022-09-02T06:16:17.060Z,65.80
2022-09-02T06:18:46.877Z,66.10
2022-09-02T06:21:14.786Z,65.90
2022-09-02T06:23:42.233Z,65.60
2022-09-02T06:26:11.837Z,65.30
2022-09-02T06:28:38.693Z,65.10
2022-09-02T06:31:11.702Z,64.80
2022-09-02T06:33:38.858Z,64.90
2022-09-02T06:36:08.513Z,64.60
2022-09-02T06:38:46.031Z,64.70
2022-09-02T06:41:23.814Z,64.30
2022-09-02T06:43:51.232Z,64.50
2022-09-02T06:46:22.307Z,64.20
2022-09-02T06:48:50.189Z,63.90
2022-09-02T06:51:38.505Z,63.40
2022-09-02T06:54:07.364Z,62.80
2022-09-02T06:56:35.037Z,62.40
2022-09-02T06:59:02.401Z,62.30
2022-09-02T07:01:31.774Z,61.90
2022-09-02T07:04:17.763Z,61.80
2022-09-02T07:06:50.501Z,62.60
2022-09-02T07:09:22.331Z,61.60
2022-09-02T07:11:51.338Z,61.50
2022-09-02T07:14:20.217Z,61.60
2022-09-02T07:16:51.001Z,61.00
2022-09-02T07:19:20.759Z,61.10
2022-09-02T07:21:49.516Z,60.90
2022-09-02T07:24:17.903Z,60.00
2022-09-02T07:26:45.337Z,60.10
2022-09-02T07:29:12.897Z,61.20
2022-09-02T07:31:42.436Z,59.90
2022-09-02T07:34:10.082Z,59.40
2022-09-02T07:36:38.503Z,59.50
2022-09-02T07:39:08.488Z,58.70
2022-09-02T07:41:36.383Z,58.50
2022-09-02T07:44:04.463Z,58.20
2022-09-02T07:46:32.267Z,58.20
2022-09-02T07:49:00.507Z,58.60
2022-09-02T07:51:27.714Z,58.30
2022-09-02T07:53:58.121Z,58.70
2022-09-02T07:56:25.059Z,58.60
2022-09-02T07:58:52.441Z,59.40
2022-09-02T08:01:23.425Z,60.00
2022-09-02T08:03:50.936Z,59.90
2022-09-02T08:06:27.756Z,59.60
2022-09-02T08:09:06.955Z,59.10
2022-09-02T08:11:39.325Z,59.40
2022-09-02T08:14:09.712Z,59.60
2022-09-02T08:16:39.511Z,59.10
2022-09-02T08:19:08.370Z,59.20
2022-09-02T08:21:35.622Z,58.60
2022-09-02T08:24:02.937Z,58.40
2022-09-02T08:26:30.191Z,59.30
2022-09-02T08:28:57.124Z,60.00
2022-09-02T08:31:23.988Z,59.70
2022-09-02T08:33:50.885Z,60.70
2022-09-02T08:36:17.858Z,61.20
2022-09-02T08:38:45.041Z,62.80
2022-09-02T08:41:20.982Z,63.10
2022-09-02T08:43:50.152Z,63.30
2022-09-02T08:46:18.805Z,63.10
2022-09-02T08:48:53.200Z,63.10
2022-09-02T08:51:37.707Z,63.00
2022-09-02T08:54:20.638Z,61.60
2022-09-02T08:56:48.702Z,62.60
2022-09-02T08:59:22.594Z,61.60
2022-09-02T09:02:12.541Z,61.80
2022-09-02T09:05:01.031Z,62.60
2022-09-02T09:07:46.981Z,63.10
2022-09-02T09:10:18.355Z,62.80
2022-09-02T09:13:15.242Z,62.70
2022-09-02T09:16:10.090Z,60.90
2022-09-02T09:18:44.599Z,59.60
2022-09-02T09:21:12.182Z,59.20
2022-09-02T09:23:40.094Z,59.10
2022-09-02T09:26:08.344Z,59.30
2022-09-02T09:28:44.000Z,59.20
2022-09-02T09:31:15.014Z,59.10
2022-09-02T09:33:59.620Z,59.30
2022-09-02T09:36:54.403Z,58.70
2022-09-02T09:39:27.486Z,58.50
2022-09-02T09:42:02.945Z,58.60
2022-09-02T09:44:40.989Z,58.80
2022-09-02T09:47:13.628Z,58.70
2022-09-02T09:49:44.245Z,59.50
2022-09-02T09:52:11.066Z,59.90
2022-09-02T09:54:38.883Z,59.50
2022-09-02T09:57:21.623Z,59.60
2022-09-02T09:59:50.019Z,59.00
2022-09-02T10:02:26.086Z,59.70
2022-09-02T10:05:10.887Z,60.10
2022-09-02T10:07:41.102Z,59.40
2022-09-02T10:10:19.818Z,58.30
2022-09-02T10:12:48.515Z,58.60
2022-09-02T10:15:21.777Z,59.30
2022-09-02T10:17:57.095Z,60.00
2022-09-02T10:21:11.419Z,59.20
2022-09-02T10:23:47.520Z,58.40
2022-09-02T10:26:36.412Z,57.60
2022-09-02T10:29:35.441Z,57.60
2022-09-02T10:32:32.357Z,57.40
2022-09-02T10:35:21.140Z,58.20
2022-09-02T10:38:06.221Z,58.60
2022-09-02T10:41:15.424Z,58.50
2022-09-02T10:43:42.171Z,58.10
2022-09-02T10:46:12.465Z,58.30
2022-09-02T10:48:51.162Z,58.30
2022-09-02T10:51:27.096Z,57.80
2022-09-02T10:54:26.885Z,57.80
2022-09-02T10:57:03.216Z,57.30
2022-09-02T10:59:40.572Z,57.60
2022-09-02T11:02:27.598Z,57.10
2022-09-02T11:05:03.913Z,57.40
2022-09-02T11:07:41.105Z,57.60
2022-09-02T11:10:15.954Z,57.20
2022-09-02T11:12:52.463Z,57.50
2022-09-02T11:15:27.161Z,57.80
2022-09-02T11:18:04.033Z,59.20
2022-09-02T11:20:41.997Z,59.70
2022-09-02T11:23:18.413Z,59.10
2022-09-02T11:26:10.077Z,58.90
2022-09-02T11:28:43.447Z,59.40
2022-09-02T11:31:21.486Z,60.20
2022-09-02T11:36:38.688Z,60.00
2022-09-02T11:39:11.524Z,60.20
2022-09-02T11:41:41.208Z,60.10
2022-09-02T11:44:11.278Z,60.20
2022-09-02T11:47:04.653Z,60.10
2022-09-02T11:49:56.308Z,60.30
2022-09-02T11:53:07.986Z,61.30
2022-09-02T11:55:38.728Z,61.00
2022-09-02T11:58:05.610Z,60.70
2022-09-02T12:00:55.756Z,60.70
2022-09-02T12:03:52.138Z,60.40
2022-09-02T12:06:20.271Z,60.10
2022-09-02T12:08:48.847Z,60.70
2022-09-02T12:11:42.255Z,61.50
2022-09-02T12:14:13.659Z,61.80
2022-09-02T12:17:02.642Z,62.00
2022-09-02T12:19:42.648Z,61.10
2022-09-02T12:22:15.764Z,61.70
2022-09-02T12:24:55.383Z,61.00
2022-09-02T12:27:36.787Z,60.50
2022-09-02T12:30:10.101Z,60.10
2022-09-02T12:32:52.361Z,60.40
2022-09-02T12:35:40.846Z,60.60
2022-09-02T12:38:10.484Z,62.00
2022-09-02T12:41:12.360Z,62.80
2022-09-02T12:43:44.633Z,61.40
2022-09-02T12:46:17.617Z,61.20
2022-09-02T12:49:14.764Z,61.30
2022-09-02T12:52:11.171Z,61.50
2022-09-02T12:54:50.567Z,61.50
2022-09-02T12:57:19.219Z,61.80
2022-09-02T12:59:47.584Z,62.30
2022-09-02T13:02:33.190Z,63.00
2022-09-02T13:05:06.546Z,62.80
2022-09-02T13:08:10.912Z,63.40
2022-09-02T13:11:28.336Z,63.30
2022-09-02T13:14:15.011Z,62.20
2022-09-02T13:17:19.169Z,61.50
2022-09-02T13:20:39.286Z,60.80
2022-09-02T13:23:31.634Z,60.80
2022-09-02T13:26:49.231Z,60.30
2022-09-02T13:29:36.233Z,60.50
2022-09-02T13:32:10.284Z,60.90
2022-09-02T13:34:44.768Z,61.20
2022-09-02T13:37:33.649Z,60.70
2022-09-02T13:40:06.569Z,60.60
2022-09-02T13:42:33.627Z,60.50
2022-09-02T13:45:19.063Z,61.00
2022-09-02T13:47:49.445Z,61.50
2022-09-02T13:50:20.120Z,61.20
2022-09-02T13:55:43.620Z,60.90
2022-09-02T13:58:32.201Z,61.30
2022-09-02T14:01:19.281Z,60.50
2022-09-02T14:03:52.204Z,61.10
2022-09-02T14:06:23.551Z,61.10
2022-09-02T14:08:58.654Z,61.30
2022-09-02T14:11:27.579Z,61.10
2022-09-02T14:13:56.298Z,60.60
2022-09-02T14:16:37.142Z,61.60
2022-09-02T14:19:22.692Z,61.20
2022-09-02T14:21:57.937Z,62.10
2022-09-02T14:24:27.999Z,62.30
2022-09-02T14:26:59.805Z,62.60
2022-09-02T14:29:29.951Z,62.60
2022-09-02T14:32:13.589Z,62.70
2022-09-02T14:34:45.767Z,62.70
2022-09-02T14:37:28.649Z,63.30
2022-09-02T14:40:13.767Z,63.10
2022-09-02T14:42:48.709Z,63.30
2022-09-02T14:45:29.470Z,63.60
2022-09-02T14:47:59.172Z,63.30
2022-09-02T14:50:36.634Z,63.80
2022-09-02T14:53:09.265Z,64.00
2022-09-02T14:55:52.353Z,63.90
2022-09-02T14:58:20.904Z,64.10
2022-09-02T15:00:56.651Z,64.30
2022-09-02T15:03:24.185Z,64.80
2022-09-02T15:05:52.342Z,64.40
2022-09-02T15:08:19.609Z,64.70
2022-09-02T15:10:46.876Z,64.40
2022-09-02T15:13:35.461Z,64.90
2022-09-02T15:16:03.193Z,64.80
2022-09-02T15:18:30.278Z,65.50
2022-09-02T15:20:57.651Z,65.50
2022-09-02T15:23:24.991Z,65.50
2022-09-02T15:25:53.931Z,65.40
2022-09-02T15:28:21.201Z,66.00
2022-09-02T15:30:48.179Z,66.30
2022-09-02T15:33:16.806Z,66.40
2022-09-02T15:35:45.482Z,66.30
2022-09-02T15:38:12.947Z,66.10
2022-09-02T15:40:39.806Z,65.50
2022-09-02T15:43:06.675Z,66.10
2022-09-02T15:45:33.662Z,65.90
2022-09-02T15:48:00.540Z,65.50
2022-09-02T15:50:32.036Z,65.70
2022-09-02T15:52:58.877Z,65.60
2022-09-02T15:55:29.335Z,66.00
2022-09-02T15:57:56.713Z,66.50
2022-09-02T16:00:27.553Z,66.40
2022-09-02T16:02:56.920Z,66.10
2022-09-02T16:05:24.292Z,66.30
2022-09-02T16:07:54.760Z,66.30
2022-09-02T16:10:21.568Z,66.60
2022-09-02T16:12:48.808Z,66.30
2022-09-02T16:15:15.871Z,66.20
2022-09-02T16:17:42.738Z,65.80
2022-09-02T16:20:09.904Z,66.40
2022-09-02T16:22:37.419Z,66.30
2022-09-02T16:25:04.543Z,66.60
2022-09-02T16:27:49.799Z,66.70
2022-09-02T16:30:16.669Z,67.20
2022-09-02T16:32:44.504Z,67.60
2022-09-02T16:35:11.408Z,67.80
2022-09-02T16:37:38.191Z,68.30
2022-09-02T16:40:05.837Z,68.50
2022-09-02T16:42:37.380Z,68.90
2022-09-02T16:45:05.583Z,68.90
2022-09-02T16:47:32.420Z,69.20
2022-09-02T16:49:59.255Z,69.60
2022-09-02T16:52:26.044Z,69.80
2022-09-02T16:54:52.845Z,69.60
2022-09-02T16:57:19.759Z,70.20
2022-09-02T16:59:46.615Z,69.20
2022-09-02T17:02:13.454Z,69.60
2022-09-02T17:04:40.352Z,70.30
2022-09-02T17:07:08.019Z,70.60
2022-09-02T17:09:35.470Z,68.60
2022-09-02T17:12:02.501Z,68.90
2022-09-02T17:14:29.332Z,68.70
2022-09-02T17:16:56.456Z,68.90
2022-09-02T17:19:27.174Z,69.50
2022-09-02T17:21:56.985Z,69.10
2022-09-02T17:24:27.799Z,69.20
2022-09-02T17:26:55.992Z,69.10
2022-09-02T17:32:14.761Z,69.00
2022-09-02T17:34:41.636Z,69.40
2022-09-02T17:37:08.489Z,70.20
2022-09-02T17:39:35.472Z,70.60
2022-09-02T17:42:06.980Z,71.10
2022-09-02T17:44:38.666Z,71.20
2022-09-02T17:47:09.410Z,71.50
2022-09-02T17:49:38.507Z,70.30
2022-09-02T17:52:07.642Z,70.90
2022-09-02T17:54:38.491Z,71.20
2022-09-02T17:57:25.562Z,70.90
2022-09-02T18:00:01.449Z,70.30
2022-09-02T18:03:02.008Z,70.30
2022-09-02T18:05:42.957Z,70.20
2022-09-02T18:08:31.791Z,70.20
2022-09-02T18:11:05.389Z,70.70
2022-09-02T18:13:40.102Z,70.50
2022-09-02T18:16:23.087Z,70.40
2022-09-02T18:19:16.369Z,70.50
2022-09-02T18:22:03.323Z,70.20
2022-09-02T18:24:53.067Z,70.60
2022-09-02T18:27:26.567Z,70.90
2022-09-02T18:30:17.043Z,70.80
2022-09-02T18:33:20.246Z,71.10
2022-09-02T18:36:00.291Z,71.30
2022-09-02T18:38:40.025Z,72.70
2022-09-02T18:41:16.880Z,71.80
2022-09-02T18:43:59.651Z,72.30
2022-09-02T18:46:32.057Z,72.40
2022-09-02T18:49:03.796Z,72.20
2022-09-02T18:51:41.007Z,72.00
2022-09-02T18:55:01.747Z,72.30
2022-09-02T18:57:35.631Z,72.60
2022-09-02T19:00:07.184Z,72.90
2022-09-02T19:02:45.821Z,72.80
2022-09-02T19:05:17.042Z,73.70
2022-09-02T19:08:04.074Z,74.00
2022-09-02T19:10:31.335Z,73.10
2022-09-02T19:13:02.684Z,73.40
2022-09-02T19:15:29.485Z,73.50
2022-09-02T19:17:56.536Z,73.40
2022-09-02T19:20:23.943Z,74.50
2022-09-02T19:22:53.880Z,74.50
2022-09-02T19:25:25.436Z,73.00
2022-09-02T19:27:54.837Z,73.70
2022-09-02T19:30:22.939Z,73.50
2022-09-02T19:32:52.778Z,72.90
2022-09-02T19:35:22.997Z,72.60
2022-09-02T19:37:53.280Z,72.90
2022-09-02T19:40:31.048Z,72.90
2022-09-02T19:42:57.909Z,73.30
2022-09-02T19:45:29.088Z,73.40
2022-09-02T19:48:06.909Z,73.40
2022-09-02T19:50:37.266Z,73.10
2022-09-02T19:53:04.217Z,73.30
2022-09-02T19:55:33.669Z,73.40
2022-09-02T19:58:00.620Z,73.30
2022-09-02T20:00:27.985Z,72.90
2022-09-02T20:02:55.383Z,73.60
2022-09-02T20:05:24.463Z,73.20
2022-09-02T20:07:51.875Z,73.40
2022-09-02T20:10:20.286Z,74.20
2022-09-02T20:12:47.587Z,73.80
2022-09-02T20:15:15.002Z,74.40
2022-09-02T20:17:42.833Z,74.20
2022-09-02T20:20:17.869Z,74.20
2022-09-02T20:22:48.048Z,75.10
2022-09-02T20:25:15.329Z,74.10
2022-09-02T20:27:48.350Z,74.80
2022-09-02T20:30:17.548Z,74.30
2022-09-02T20:33:05.390Z,74.30
2022-09-02T20:35:44.511Z,74.60
2022-09-02T20:38:26.561Z,75.20
2022-09-02T20:41:20.398Z,76.10
2022-09-02T20:44:04.803Z,76.80
2022-09-02T20:47:02.667Z,76.20
2022-09-02T20:49:54.104Z,75.20
2022-09-02T20:52:50.776Z,74.90
2022-09-02T20:55:21.648Z,74.80
2022-09-02T20:57:48.407Z,75.30
2022-09-02T21:00:21.846Z,75.00
2022-09-02T21:02:51.263Z,75.30
2022-09-02T21:05:24.050Z,75.40
2022-09-02T21:08:05.550Z,75.50
2022-09-02T21:10:47.906Z,76.70
2022-09-02T21:13:35.518Z,76.50
2022-09-02T21:16:12.501Z,76.00
2022-09-02T21:18:46.370Z,76.10
2022-09-02T21:21:23.385Z,75.70
2022-09-02T21:23:56.523Z,75.70
2022-09-02T21:26:37.148Z,75.40
2022-09-02T21:29:26.156Z,76.10
2022-09-02T21:32:21.982Z,75.70
2022-09-02T21:35:00.883Z,75.80
2022-09-02T21:37:32.027Z,75.60
2022-09-02T21:40:06.928Z,75.70
2022-09-02T21:42:39.430Z,76.00
2022-09-02T21:45:17.769Z,76.40
2022-09-02T21:48:15.527Z,75.50
2022-09-02T21:51:01.682Z,75.70
2022-09-02T21:53:31.296Z,75.20
2022-09-02T21:56:21.286Z,74.80
2022-09-02T21:59:15.122Z,74.80
2022-09-02T22:01:55.806Z,75.00
2022-09-02T22:04:46.648Z,75.00
2022-09-02T22:07:19.105Z,75.20
2022-09-02T22:09:59.685Z,75.30
2022-09-02T22:12:26.734Z,75.40
2022-09-02T22:15:23.739Z,75.80
2022-09-02T22:17:55.484Z,75.60
2022-09-02T22:20:39.125Z,75.70
2022-09-02T22:23:17.587Z,75.80
2022-09-02T22:25:48.743Z,76.20
2022-09-02T22:28:21.227Z,76.10
2022-09-02T22:30:55.586Z,76.30
2022-09-02T22:33:27.853Z,76.40
2022-09-02T22:36:06.436Z,76.20
2022-09-02T22:38:41.361Z,76.40
2022-09-02T22:41:59.355Z,76.50
2022-09-02T22:48:26.153Z,76.80
2022-09-02T22:55:17.067Z,76.90
2022-09-02T23:35:24.243Z,78.10
2022-09-02T23:45:21.934Z,78.90
